Time;durP1;ratioP1;P1;durP2;ratioP2;P2;SDS_P1;SDS_P2;PMS_P1;PMS_P2;Temp;Humidity;BMP_temperature;BMP_pressure;BME280_temperature;BME280_humidity;BME280_pressure;Samples;Min_cycle;Max_cycle;Signal;HPM_P1;HPM_P2
2021/12/15 00:03:48;;;;;;;41.90;22.40;;;;;8.70;102473.00;;;;10462258;28;20244;-79
2021/12/15 00:08:53;;;;;;;37.60;21.03;;;;;8.70;102475.00;;;;10424418;28;20673;-79
2021/12/15 00:13:57;;;;;;;42.27;22.43;;;;;8.70;102469.00;;;;10448210;28;20194;-79
2021/12/15 00:18:59;;;;;;;41.17;22.70;;;;;8.70;102472.00;;;;10407837;28;20309;-79
2021/12/15 00:24:06;;;;;;;43.50;22.33;;;;;8.70;102469.00;;;;10453851;28;20557;-79
2021/12/15 00:29:08;;;;;;;44.40;22.60;;;;;8.70;102472.00;;;;10458473;28;20236;-79
2021/12/15 00:34:10;;;;;;;43.73;22.20;;;;;8.70;102468.00;;;;10429839;28;20292;-79
2021/12/15 00:39:15;;;;;;;40.53;22.00;;;;;8.60;102461.00;;;;10450612;28;20220;-79
2021/12/15 00:44:18;;;;;;;47.10;23.43;;;;;8.60;102465.00;;;;10431068;28;20277;-79
2021/12/15 00:49:22;;;;;;;47.07;23.30;;;;;8.60;102467.00;;;;10426476;28;20256;-77
2021/12/15 00:54:24;;;;;;;52.37;25.07;;;;;8.60;102471.00;;;;10453787;28;20197;-77
2021/12/15 00:59:26;;;;;;;46.47;22.80;;;;;8.60;102464.00;;;;10416901;28;20198;-77
2021/12/15 01:04:31;;;;;;;56.27;25.23;;;;;8.60;102466.00;;;;10478203;28;20284;-77
2021/12/15 01:09:45;;;;;;;51.33;24.77;;;;;8.60;102456.00;;;;10495942;28;20560;-77
2021/12/15 01:19:58;;;;;;;50.10;24.60;;;;;8.70;102464.00;;;;10511085;28;20181;-77
2021/12/15 01:25:38;;;;;;;54.90;25.80;;;;;8.70;102461.00;;;;10493534;28;20729;-77
2021/12/15 01:30:44;;;;;;;56.13;25.33;;;;;8.70;102452.00;;;;10464082;28;20588;-79
2021/12/15 01:35:48;;;;;;;59.07;27.00;;;;;8.70;102445.00;;;;10468399;28;20232;-79
2021/12/15 01:40:51;;;;;;;61.47;25.20;;;;;8.70;102463.00;;;;10483764;28;20653;-79
2021/12/15 01:51:20;;;;;;;54.57;27.07;;;;;8.70;102479.00;;;;10511357;28;20563;-79
2021/12/15 01:56:24;;;;;;;56.57;27.23;;;;;8.70;102473.00;;;;10495008;28;20182;-79
2021/12/15 02:01:26;;;;;;;56.43;26.17;;;;;8.70;102476.00;;;;10469191;28;20634;-79
2021/12/15 02:06:29;;;;;;;58.70;26.47;;;;;8.70;102484.00;;;;10501428;28;20284;-79
2021/12/15 02:11:31;;;;;;;60.53;26.03;;;;;8.80;102486.00;;;;10503563;28;20204;-79
2021/12/15 02:16:33;;;;;;;57.23;24.97;;;;;8.70;102490.00;;;;10502115;28;20209;-79
2021/12/15 02:21:35;;;;;;;51.40;24.60;;;;;8.80;102488.00;;;;10505148;28;20274;-79
2021/12/15 02:26:44;;;;;;;54.83;26.07;;;;;8.80;102486.00;;;;10486342;28;20272;-79
2021/12/15 02:37:18;;;;;;;55.40;25.07;;;;;8.80;102477.00;;;;10483597;28;20226;-77
2021/12/15 02:42:27;;;;;;;62.47;26.87;;;;;8.80;102481.00;;;;10504706;28;20197;-79
2021/12/15 02:47:31;;;;;;;58.87;26.87;;;;;8.80;102485.00;;;;10521206;28;20195;-79
2021/12/15 02:52:34;;;;;;;57.83;25.10;;;;;8.80;102487.00;;;;10474265;28;20240;-79
2021/12/15 02:57:37;;;;;;;55.23;23.93;;;;;8.80;102492.00;;;;10472581;28;20204;-79
2021/12/15 03:18:20;;;;;;;48.70;22.67;;;;;8.80;102475.00;;;;10498676;28;20242;-79
2021/12/15 03:23:53;;;;;;;47.57;23.13;;;;;8.80;102469.00;;;;10474313;28;20191;-79
2021/12/15 03:39:34;;;;;;;49.13;23.20;;;;;8.70;102479.00;;;;10484813;28;20211;-79
2021/12/15 03:44:40;;;;;;;46.70;22.50;;;;;8.70;102492.00;;;;10508378;28;20193;-79
2021/12/15 03:49:42;;;;;;;54.53;25.13;;;;;8.70;102482.00;;;;10505517;28;20205;-79
2021/12/15 03:54:44;;;;;;;49.20;23.83;;;;;8.80;102486.00;;;;10447822;28;20243;-79
2021/12/15 03:59:46;;;;;;;46.17;21.20;;;;;8.80;102498.00;;;;10513867;28;20188;-77
2021/12/15 04:04:49;;;;;;;42.63;23.00;;;;;8.80;102494.00;;;;10487894;28;20204;-79
2021/12/15 04:09:52;;;;;;;48.17;22.07;;;;;8.80;102501.00;;;;10528118;28;20261;-79
2021/12/15 04:15:06;;;;;;;45.37;21.27;;;;;8.80;102501.00;;;;10508575;28;20230;-79
2021/12/15 04:20:15;;;;;;;44.70;22.33;;;;;8.80;102501.00;;;;10484260;28;20195;-79
2021/12/15 04:25:26;;;;;;;48.47;21.70;;;;;8.80;102496.00;;;;10487526;28;20199;-79
2021/12/15 04:30:38;;;;;;;46.03;21.70;;;;;8.80;102500.00;;;;10512487;28;20684;-79
2021/12/15 04:35:42;;;;;;;46.87;22.93;;;;;8.80;102505.00;;;;10512779;28;20219;-77
2021/12/15 04:40:44;;;;;;;46.83;23.80;;;;;8.80;102500.00;;;;10482130;28;20192;-77
2021/12/15 04:45:46;;;;;;;51.10;24.10;;;;;8.90;102508.00;;;;10495648;28;20656;-77
2021/12/15 04:50:48;;;;;;;54.87;25.60;;;;;8.90;102505.00;;;;10495277;28;20201;-77
2021/12/15 04:55:50;;;;;;;58.87;24.97;;;;;8.90;102511.00;;;;10512058;28;20246;-77
2021/12/15 05:00:57;;;;;;;53.63;25.83;;;;;9.00;102515.00;;;;10478502;28;20217;-77
2021/12/15 05:05:59;;;;;;;57.23;27.90;;;;;9.00;102509.00;;;;10478585;28;20212;-77
2021/12/15 05:11:04;;;;;;;60.97;27.47;;;;;9.00;102513.00;;;;10461729;28;20202;-77
2021/12/15 05:16:07;;;;;;;56.53;25.93;;;;;9.00;102511.00;;;;10469898;28;20719;-77
2021/12/15 05:21:10;;;;;;;53.37;27.40;;;;;9.00;102519.00;;;;10468955;28;20189;-78
2021/12/15 05:26:12;;;;;;;64.30;28.90;;;;;9.00;102514.00;;;;10469175;28;20200;-77
2021/12/15 05:31:14;;;;;;;67.27;31.00;;;;;9.00;102528.00;;;;10505229;28;20266;-78
2021/12/15 05:36:17;;;;;;;65.77;28.73;;;;;9.00;102522.00;;;;10510155;28;20235;-77
2021/12/15 05:41:20;;;;;;;57.53;27.07;;;;;9.00;102521.00;;;;10508213;28;20189;-77
2021/12/15 05:46:21;;;;;;;51.50;25.50;;;;;9.00;102528.00;;;;10490822;28;20189;-77
2021/12/15 05:51:24;;;;;;;51.63;24.87;;;;;9.00;102526.00;;;;10493218;28;20300;-78
2021/12/15 05:56:27;;;;;;;45.60;22.83;;;;;9.00;102519.00;;;;10431699;28;20644;-77
2021/12/15 06:01:32;;;;;;;43.17;23.60;;;;;9.00;102530.00;;;;10492275;28;20235;-78
2021/12/15 06:06:36;;;;;;;50.30;23.57;;;;;9.00;102525.00;;;;10467229;28;20216;-78
2021/12/15 06:11:39;;;;;;;41.53;20.70;;;;;9.00;102532.00;;;;10494626;28;20216;-77
2021/12/15 06:16:41;;;;;;;47.17;24.87;;;;;9.00;102549.00;;;;10492133;28;20197;-77
2021/12/15 06:21:43;;;;;;;53.83;25.43;;;;;9.00;102545.00;;;;10479213;28;20783;-77
2021/12/15 06:26:45;;;;;;;47.70;24.33;;;;;9.00;102546.00;;;;10457602;28;20186;-77
2021/12/15 06:31:46;;;;;;;46.77;24.63;;;;;9.00;102549.00;;;;10465710;28;20232;-77
2021/12/15 06:36:49;;;;;;;46.10;24.97;;;;;9.00;102561.00;;;;10479196;28;20194;-77
2021/12/15 06:41:59;;;;;;;45.50;24.87;;;;;9.10;102559.00;;;;10546746;28;20309;-77
2021/12/15 07:02:47;;;;;;;48.23;26.03;;;;;9.00;102573.00;;;;10494478;28;20215;-78
2021/12/15 07:07:50;;;;;;;50.90;24.93;;;;;9.00;102581.00;;;;10506101;28;20197;-78
2021/12/15 07:12:53;;;;;;;55.70;26.00;;;;;9.00;102568.00;;;;10484184;28;20205;-78
2021/12/15 07:18:01;;;;;;;45.70;24.20;;;;;9.00;102580.00;;;;10475081;28;20197;-77
2021/12/15 07:23:10;;;;;;;42.90;23.40;;;;;9.00;102589.00;;;;10463655;28;20215;-77
2021/12/15 07:28:14;;;;;;;44.70;22.90;;;;;9.00;102594.00;;;;10489186;28;20704;-78
2021/12/15 07:33:16;;;;;;;45.33;23.17;;;;;9.00;102595.00;;;;10468620;28;20217;-77
2021/12/15 07:38:18;;;;;;;44.77;23.60;;;;;9.10;102601.00;;;;10474377;28;20200;-77
2021/12/15 07:43:26;;;;;;;41.20;22.83;;;;;9.10;102607.00;;;;10446311;28;20193;-78
2021/12/15 07:48:34;;;;;;;49.10;24.50;;;;;9.10;102611.00;;;;10497098;28;20232;-78
2021/12/15 07:53:41;;;;;;;58.23;27.50;;;;;9.10;102609.00;;;;10524521;28;20296;-77
2021/12/15 07:58:43;;;;;;;53.30;25.93;;;;;9.20;102608.00;;;;10495671;28;20247;-77
2021/12/15 08:03:51;;;;;;;53.13;26.63;;;;;9.20;102612.00;;;;10514372;28;20878;-78
2021/12/15 08:08:54;;;;;;;53.10;26.60;;;;;9.20;102616.00;;;;10468891;28;20203;-77
2021/12/15 08:13:57;;;;;;;54.13;26.33;;;;;9.30;102623.00;;;;10499888;28;20613;-77
2021/12/15 08:19:01;;;;;;;46.07;23.63;;;;;9.30;102638.00;;;;10518178;28;20760;-77
2021/12/15 08:24:04;;;;;;;50.20;26.23;;;;;9.30;102627.00;;;;10470551;28;20238;-77
2021/12/15 08:29:06;;;;;;;59.73;33.17;;;;;9.40;102629.00;;;;10483202;28;20189;-77
2021/12/15 08:34:08;;;;;;;51.73;28.43;;;;;9.40;102633.00;;;;10461544;28;20233;-77
2021/12/15 08:39:10;;;;;;;51.53;26.03;;;;;9.40;102632.00;;;;10445985;28;20204;-77
2021/12/15 08:44:12;;;;;;;51.43;28.47;;;;;9.50;102643.00;;;;10499372;28;20186;-78
2021/12/15 08:49:18;;;;;;;52.90;27.43;;;;;9.50;102634.00;;;;10486489;28;20673;-77
2021/12/15 08:54:21;;;;;;;51.27;28.50;;;;;9.50;102644.00;;;;10486802;28;20235;-76
2021/12/15 08:59:24;;;;;;;51.90;26.87;;;;;9.60;102639.00;;;;10465914;28;20592;-77
2021/12/15 09:04:26;;;;;;;50.10;26.57;;;;;9.60;102644.00;;;;10471492;28;20814;-77
2021/12/15 09:09:33;;;;;;;52.97;28.33;;;;;9.60;102654.00;;;;10524643;28;20660;-77
2021/12/15 09:14:35;;;;;;;51.40;29.10;;;;;9.60;102657.00;;;;10449810;28;20685;-77
2021/12/15 09:19:37;;;;;;;48.07;26.73;;;;;9.60;102655.00;;;;10500014;28;20266;-77
2021/12/15 09:24:39;;;;;;;50.00;27.47;;;;;9.70;102655.00;;;;10478716;28;20238;-77
2021/12/15 09:29:41;;;;;;;44.60;26.57;;;;;9.80;102659.00;;;;10511332;28;20208;-77
2021/12/15 09:34:43;;;;;;;48.27;28.73;;;;;9.90;102663.00;;;;10494747;28;20676;-77
2021/12/15 09:39:45;;;;;;;48.07;27.13;;;;;10.00;102661.00;;;;10488897;28;20196;-77
2021/12/15 09:45:01;;;;;;;47.40;26.73;;;;;10.00;102678.00;;;;10468978;28;20197;-77
2021/12/15 10:12:19;;;;;;;41.50;25.63;;;;;10.10;102701.00;;;;10477174;28;20221;-76
2021/12/15 10:27:41;;;;;;;43.17;25.30;;;;;10.30;102695.00;;;;10507705;28;20193;-77
2021/12/15 10:32:49;;;;;;;47.07;28.13;;;;;10.30;102688.00;;;;10508681;28;20228;-76
2021/12/15 10:38:31;;;;;;;41.53;27.03;;;;;10.40;102697.00;;;;10492314;28;20193;-77
2021/12/15 10:43:50;;;;;;;40.20;24.50;;;;;10.40;102699.00;;;;10332446;28;20195;-77
2021/12/15 10:48:59;;;;;;;39.00;23.87;;;;;10.40;102696.00;;;;10458688;28;20288;-77
2021/12/15 10:54:10;;;;;;;40.10;25.37;;;;;10.50;102698.00;;;;10482430;28;20205;-77
2021/12/15 10:59:13;;;;;;;39.97;24.57;;;;;10.50;102706.00;;;;10465671;28;20189;-77
2021/12/15 11:04:24;;;;;;;37.17;23.27;;;;;10.60;102702.00;;;;10482172;28;20185;-77
2021/12/15 11:09:30;;;;;;;38.30;24.03;;;;;10.60;102698.00;;;;10484689;28;20649;-77
2021/12/15 11:14:36;;;;;;;41.40;25.13;;;;;10.60;102693.00;;;;10490490;28;20220;-77
2021/12/15 11:19:44;;;;;;;35.13;23.00;;;;;10.60;102702.00;;;;10506723;28;20197;-77
2021/12/15 11:24:46;;;;;;;33.73;22.27;;;;;10.60;102686.00;;;;10507000;28;20189;-76
2021/12/15 11:29:48;;;;;;;34.07;23.43;;;;;10.60;102687.00;;;;10506310;28;20647;-77
2021/12/15 11:35:17;;;;;;;33.23;23.17;;;;;10.70;102678.00;;;;10500485;28;21001;-77
2021/12/15 11:40:56;;;;;;;35.33;21.93;;;;;10.80;102676.00;;;;10489637;28;20648;-77
2021/12/15 11:45:59;;;;;;;35.37;23.20;;;;;10.80;102681.00;;;;10502194;28;20203;-77
2021/12/15 11:51:05;;;;;;;29.37;20.27;;;;;10.80;102674.00;;;;10544574;28;20864;-77
2021/12/15 11:56:10;;;;;;;28.67;20.27;;;;;10.80;102677.00;;;;10546778;28;20188;-77
2021/12/15 12:01:57;;;;;;;32.07;22.20;;;;;10.90;102676.00;;;;10563914;28;20241;-77
2021/12/15 12:07:27;;;;;;;31.27;20.77;;;;;10.80;102664.00;;;;10545360;28;20210;-77
2021/12/15 12:12:36;;;;;;;31.33;21.10;;;;;10.80;102669.00;;;;10463551;28;20209;-77
2021/12/15 12:17:40;;;;;;;31.03;21.53;;;;;10.80;102667.00;;;;10502210;28;20189;-77
2021/12/15 12:22:45;;;;;;;30.37;21.07;;;;;10.80;102665.00;;;;10501975;28;20185;-77
2021/12/15 12:27:48;;;;;;;28.97;20.67;;;;;10.80;102663.00;;;;10479877;28;20182;-77
2021/12/15 12:32:52;;;;;;;31.07;20.23;;;;;10.90;102665.00;;;;10499259;28;20238;-77
2021/12/15 12:38:01;;;;;;;30.90;19.97;;;;;10.80;102666.00;;;;10521555;28;20234;-77
2021/12/15 12:43:22;;;;;;;29.03;19.63;;;;;10.70;102653.00;;;;10513068;28;20640;-77
2021/12/15 12:59:29;;;;;;;31.20;21.13;;;;;10.60;102651.00;;;;10528670;28;20252;-77
2021/12/15 13:04:38;;;;;;;32.10;22.67;;;;;10.70;102655.00;;;;10495239;28;20200;-77
2021/12/15 13:09:49;;;;;;;32.20;22.30;;;;;10.70;102645.00;;;;10491101;28;20201;-77
2021/12/15 13:14:56;;;;;;;35.97;23.53;;;;;10.70;102666.00;;;;10486960;28;20198;-77
2021/12/15 13:19:58;;;;;;;34.83;24.23;;;;;10.70;102655.00;;;;10536714;28;20215;-77
2021/12/15 13:30:49;;;;;;;32.90;23.07;;;;;10.70;102650.00;;;;10519607;28;20267;-77
2021/12/15 13:35:56;;;;;;;34.03;24.20;;;;;10.60;102648.00;;;;10486042;28;20231;-77
2021/12/15 13:41:30;;;;;;;35.70;23.73;;;;;10.50;102654.00;;;;10500800;28;20648;-77
2021/12/15 13:46:42;;;;;;;35.07;23.63;;;;;10.40;102650.00;;;;10490341;28;20648;-77
2021/12/15 13:52:09;;;;;;;37.63;24.27;;;;;10.40;102655.00;;;;10510542;28;20200;-77
2021/12/15 13:57:11;;;;;;;37.87;24.53;;;;;10.40;102661.00;;;;10493632;28;20189;-77
2021/12/15 14:02:16;;;;;;;39.43;24.57;;;;;10.40;102653.00;;;;10510000;28;20200;-77
2021/12/15 14:07:30;;;;;;;39.23;23.93;;;;;10.40;102653.00;;;;10510054;28;20193;-77
2021/12/15 14:12:44;;;;;;;37.43;25.20;;;;;10.30;102653.00;;;;10492838;28;20205;-77
2021/12/15 14:18:14;;;;;;;38.53;25.33;;;;;10.30;102654.00;;;;10492752;28;20197;-77
2021/12/15 14:23:19;;;;;;;41.40;28.43;;;;;10.30;102650.00;;;;10508479;28;20185;-77
2021/12/15 14:28:34;;;;;;;43.20;27.43;;;;;10.30;102649.00;;;;10508125;28;20201;-77
2021/12/15 14:33:43;;;;;;;43.70;27.53;;;;;10.20;102662.00;;;;10507996;28;20252;-77
2021/12/15 14:38:49;;;;;;;40.90;26.57;;;;;10.20;102668.00;;;;10508339;28;20200;-77
2021/12/15 14:44:14;;;;;;;40.13;25.40;;;;;10.20;102662.00;;;;10511217;28;20241;-77
2021/12/15 14:49:29;;;;;;;37.87;24.40;;;;;10.10;102652.00;;;;10491686;28;20193;-77
2021/12/15 14:54:33;;;;;;;46.83;25.53;;;;;10.10;102660.00;;;;10458786;28;20206;-77
2021/12/15 14:59:39;;;;;;;40.93;26.87;;;;;10.00;102663.00;;;;10465833;28;20194;-77
2021/12/15 15:04:46;;;;;;;44.63;28.07;;;;;10.00;102672.00;;;;10465463;28;20224;-77
2021/12/15 15:09:52;;;;;;;36.27;25.57;;;;;9.90;102680.00;;;;10487531;28;20200;-77
2021/12/15 15:15:22;;;;;;;41.83;26.97;;;;;9.90;102678.00;;;;10490533;28;20270;-77
2021/12/15 15:20:31;;;;;;;39.93;26.63;;;;;9.90;102690.00;;;;10506837;28;20197;-77
2021/12/15 15:25:36;;;;;;;46.23;28.43;;;;;9.80;102695.00;;;;10436675;28;20194;-77
2021/12/15 15:30:40;;;;;;;46.07;28.50;;;;;9.80;102701.00;;;;10497703;28;20670;-77
2021/12/15 15:35:49;;;;;;;40.90;26.83;;;;;9.70;102703.00;;;;10470456;28;20695;-77
2021/12/15 15:40:55;;;;;;;43.17;27.70;;;;;9.70;102701.00;;;;10522266;28;20200;-77
2021/12/15 15:45:57;;;;;;;39.97;26.03;;;;;9.70;102717.00;;;;10489173;28;20189;-77
2021/12/15 15:51:26;;;;;;;40.57;26.57;;;;;9.70;102723.00;;;;10505199;28;20224;-77
2021/12/15 15:56:31;;;;;;;44.73;27.03;;;;;9.60;102725.00;;;;10505440;28;20560;-77
2021/12/15 16:01:39;;;;;;;40.67;27.60;;;;;9.60;102721.00;;;;10504583;28;20269;-77
2021/12/15 16:06:41;;;;;;;42.50;27.50;;;;;9.60;102736.00;;;;10487793;28;20181;-77
2021/12/15 16:11:51;;;;;;;44.47;29.20;;;;;9.60;102725.00;;;;10483897;28;20258;-77
2021/12/15 16:17:02;;;;;;;41.23;28.17;;;;;9.60;102740.00;;;;10511699;28;20255;-77
2021/12/15 16:27:42;;;;;;;41.80;26.57;;;;;9.60;102747.00;;;;10486785;28;20185;-77
2021/12/15 16:32:46;;;;;;;40.03;27.07;;;;;9.60;102757.00;;;;10503459;28;20216;-77
2021/12/15 16:37:48;;;;;;;43.43;27.37;;;;;9.60;102752.00;;;;10501870;28;20204;-77
2021/12/15 16:43:11;;;;;;;39.23;26.67;;;;;9.60;102751.00;;;;10519783;28;20232;-77
2021/12/15 16:48:27;;;;;;;42.07;26.70;;;;;9.60;102773.00;;;;10501071;28;20271;-77
2021/12/15 16:53:42;;;;;;;47.07;27.67;;;;;9.60;102766.00;;;;10517695;28;20676;-77
2021/12/15 16:59:05;;;;;;;48.30;28.00;;;;;9.60;102781.00;;;;10461224;28;20198;-77
2021/12/15 17:04:08;;;;;;;40.53;26.70;;;;;9.60;102776.00;;;;10479363;28;20254;-76
2021/12/15 17:09:31;;;;;;;41.67;27.13;;;;;9.60;102780.00;;;;10435150;28;20197;-77
2021/12/15 17:14:46;;;;;;;41.00;26.67;;;;;9.60;102786.00;;;;10442033;28;20210;-77
2021/12/15 17:19:49;;;;;;;47.03;28.07;;;;;9.50;102793.00;;;;10471496;28;20213;-76
2021/12/15 17:24:51;;;;;;;46.80;28.17;;;;;9.50;102788.00;;;;10434365;28;20243;-77
2021/12/15 17:29:53;;;;;;;49.00;27.60;;;;;9.50;102800.00;;;;10430524;28;20656;-77
2021/12/15 17:34:55;;;;;;;42.77;27.37;;;;;9.50;102804.00;;;;10461519;28;20263;-76
2021/12/15 17:40:00;;;;;;;45.90;28.27;;;;;9.60;102797.00;;;;10496877;28;20201;-77
2021/12/15 17:45:12;;;;;;;42.73;27.20;;;;;9.60;102790.00;;;;10454007;28;20198;-76
2021/12/15 17:50:24;;;;;;;41.80;26.03;;;;;9.60;102793.00;;;;10477499;28;20247;-77
2021/12/15 17:55:33;;;;;;;44.47;25.70;;;;;9.60;102794.00;;;;10452821;28;20238;-77
2021/12/15 18:00:45;;;;;;;44.17;27.23;;;;;9.60;102805.00;;;;10463968;28;20599;-77
2021/12/15 18:05:48;;;;;;;41.07;24.97;;;;;9.60;102808.00;;;;10463476;28;20209;-78
2021/12/15 18:11:02;;;;;;;43.57;26.10;;;;;9.60;102809.00;;;;10477094;28;20197;-77
2021/12/15 18:16:07;;;;;;;43.93;26.83;;;;;9.60;102812.00;;;;10453413;28;20194;-76
2021/12/15 18:21:13;;;;;;;43.20;25.93;;;;;9.60;102807.00;;;;10457108;28;20569;-77
2021/12/15 18:26:18;;;;;;;44.30;26.17;;;;;9.60;102818.00;;;;10466129;28;20538;-76
2021/12/15 18:31:21;;;;;;;41.30;25.37;;;;;9.60;102819.00;;;;10433053;28;20243;-77
2021/12/15 18:36:23;;;;;;;46.50;27.97;;;;;9.60;102821.00;;;;10449052;28;20217;-76
2021/12/15 18:41:28;;;;;;;45.17;27.80;;;;;9.60;102819.00;;;;10465409;28;20186;-76
2021/12/15 18:46:33;;;;;;;42.53;27.10;;;;;9.60;102814.00;;;;10439730;28;20244;-77
2021/12/15 18:51:36;;;;;;;47.00;27.23;;;;;9.60;102818.00;;;;10407813;28;20210;-76
2021/12/15 18:56:38;;;;;;;39.37;25.27;;;;;9.60;102823.00;;;;10423959;28;20187;-77
2021/12/15 19:01:47;;;;;;;43.90;26.60;;;;;9.60;102830.00;;;;10415882;28;20229;-77
2021/12/15 19:06:50;;;;;;;41.93;24.90;;;;;9.60;102829.00;;;;10464769;28;20231;-77
2021/12/15 19:11:55;;;;;;;47.20;26.93;;;;;9.60;102828.00;;;;10462238;28;20209;-77
2021/12/15 19:16:58;;;;;;;48.03;26.57;;;;;9.60;102826.00;;;;10480466;28;20212;-77
2021/12/15 19:22:03;;;;;;;44.13;26.63;;;;;9.60;102834.00;;;;10473257;28;20189;-77
2021/12/15 19:27:06;;;;;;;45.10;26.83;;;;;9.60;102840.00;;;;10522377;28;20570;-77
2021/12/15 19:32:09;;;;;;;46.40;27.27;;;;;9.60;102842.00;;;;10487932;28;20304;-77
2021/12/15 19:37:10;;;;;;;44.37;26.87;;;;;9.60;102846.00;;;;10505152;28;20619;-77
2021/12/15 19:42:12;;;;;;;45.33;27.10;;;;;9.60;102850.00;;;;10488597;28;20594;-76
2021/12/15 19:47:14;;;;;;;43.40;25.47;;;;;9.60;102844.00;;;;10505178;28;20230;-77
2021/12/15 19:52:17;;;;;;;42.33;25.63;;;;;9.60;102849.00;;;;10488069;28;20205;-77
2021/12/15 19:57:19;;;;;;;45.10;27.27;;;;;9.60;102848.00;;;;10486161;28;20190;-76
2021/12/15 20:02:22;;;;;;;44.47;25.60;;;;;9.60;102849.00;;;;10479640;28;20201;-77
2021/12/15 20:07:24;;;;;;;47.43;26.60;;;;;9.60;102844.00;;;;10495413;28;20254;-76
2021/12/15 20:12:28;;;;;;;41.93;25.00;;;;;9.60;102852.00;;;;10492018;28;20255;-77
2021/12/15 20:17:30;;;;;;;44.10;24.73;;;;;9.60;102856.00;;;;10482457;28;20272;-77
2021/12/15 20:22:32;;;;;;;40.10;24.00;;;;;9.60;102854.00;;;;10464787;28;20217;-77
2021/12/15 20:27:35;;;;;;;44.13;24.70;;;;;9.60;102859.00;;;;10485130;28;20226;-77
2021/12/15 20:32:39;;;;;;;42.47;25.60;;;;;9.60;102874.00;;;;10519153;28;20266;-77
2021/12/15 20:37:41;;;;;;;43.43;25.63;;;;;9.60;102863.00;;;;10502479;28;20279;-77
2021/12/15 20:42:43;;;;;;;46.70;25.90;;;;;9.60;102877.00;;;;10485743;28;20192;-77
2021/12/15 20:47:45;;;;;;;43.97;23.53;;;;;9.60;102883.00;;;;10501718;28;20188;-77
2021/12/15 20:52:49;;;;;;;41.10;25.40;;;;;9.60;102876.00;;;;10514181;28;20549;-77
2021/12/15 20:57:51;;;;;;;44.40;24.90;;;;;9.60;102888.00;;;;10480286;28;20210;-77
2021/12/15 21:02:53;;;;;;;46.60;26.00;;;;;9.60;102876.00;;;;10481815;28;20194;-77
2021/12/15 21:07:57;;;;;;;46.30;26.87;;;;;9.50;102879.00;;;;10476837;28;20239;-77
2021/12/15 21:12:59;;;;;;;42.67;23.93;;;;;9.50;102885.00;;;;10509203;28;20244;-77
2021/12/15 21:18:03;;;;;;;43.57;25.00;;;;;9.50;102886.00;;;;10492507;28;20192;-77
2021/12/15 21:23:08;;;;;;;44.80;25.33;;;;;9.60;102887.00;;;;10519648;28;20230;-77
2021/12/15 21:28:26;;;;;;;43.40;24.93;;;;;9.60;102887.00;;;;10550340;28;20188;-77
2021/12/15 21:33:30;;;;;;;41.10;24.03;;;;;9.50;102879.00;;;;10548811;28;20255;-76
2021/12/15 21:38:33;;;;;;;44.27;24.73;;;;;9.50;102901.00;;;;10537711;28;20219;-77
2021/12/15 21:43:36;;;;;;;43.07;24.30;;;;;9.50;102876.00;;;;10500389;28;20188;-76
2021/12/15 21:48:39;;;;;;;40.57;25.40;;;;;9.50;102883.00;;;;10481089;28;20209;-77
2021/12/15 21:53:42;;;;;;;39.97;23.40;;;;;9.40;102890.00;;;;10458473;28;20284;-77
2021/12/15 21:58:44;;;;;;;42.63;25.63;;;;;9.50;102882.00;;;;10511252;28;20649;-76
2021/12/15 22:03:47;;;;;;;40.23;24.90;;;;;9.40;102901.00;;;;10506080;28;20193;-77
2021/12/15 22:08:52;;;;;;;40.40;22.90;;;;;9.40;102874.00;;;;10492743;28;20189;-76
2021/12/15 22:13:56;;;;;;;46.30;25.40;;;;;9.40;102883.00;;;;10499742;28;20209;-77
2021/12/15 22:19:04;;;;;;;40.43;25.60;;;;;9.40;102901.00;;;;10493262;28;20202;-77
2021/12/15 22:24:21;;;;;;;48.70;26.37;;;;;9.40;102900.00;;;;10502390;28;20185;-77
2021/12/15 22:29:29;;;;;;;45.30;24.83;;;;;9.40;102908.00;;;;10523407;28;20280;-77
2021/12/15 22:34:31;;;;;;;48.17;25.80;;;;;9.40;102908.00;;;;10502044;28;20290;-77
2021/12/15 22:39:33;;;;;;;45.13;25.73;;;;;9.40;102919.00;;;;10487287;28;20227;-76
2021/12/15 22:44:36;;;;;;;42.37;25.67;;;;;9.40;102920.00;;;;10480175;28;20225;-77
2021/12/15 22:49:39;;;;;;;44.07;26.03;;;;;9.40;102915.00;;;;10464867;28;20197;-77
2021/12/15 22:54:41;;;;;;;46.00;27.10;;;;;9.40;102930.00;;;;10502124;28;20209;-77
2021/12/15 22:59:47;;;;;;;45.87;27.67;;;;;9.40;102934.00;;;;10484303;28;20194;-77
2021/12/15 23:04:52;;;;;;;44.20;27.43;;;;;9.40;102930.00;;;;10508347;28;20204;-77
2021/12/15 23:09:56;;;;;;;42.97;26.13;;;;;9.40;102941.00;;;;10469452;28;20189;-77
2021/12/15 23:15:04;;;;;;;43.33;26.53;;;;;9.40;102939.00;;;;10499472;28;20224;-77
2021/12/15 23:20:09;;;;;;;44.23;25.87;;;;;9.40;102945.00;;;;10473801;28;20212;-77
2021/12/15 23:25:15;;;;;;;41.77;25.73;;;;;9.40;102943.00;;;;10476933;28;20657;-77
2021/12/15 23:30:19;;;;;;;42.03;26.03;;;;;9.40;102942.00;;;;10497840;28;20186;-77
2021/12/15 23:40:39;;;;;;;45.47;27.30;;;;;9.40;102945.00;;;;10467118;28;20228;-77
